HE16 weather

Birma Air Base
Tanta, Gharbia Governorate, Egypt

Public forecast

Using degrees Celsius for public forecast. Weather courtesy of forecast.io.

METAR (pilot weather report)

Closest report is Cairo International Airport, 49.3 nm (91.3 km) SSE. Retrieved 2019/04/21 10:30 UTC (6 minutes ago):

HECA 211030Z 29011KT 9999 BKN025 20/04 Q1018 NOSIG

TAF (pilot weather forecast)

Closest forecast is Cairo International Airport, 49.3 nm (91.3 km) SSE. Retrieved 2019/04/21 06:06 UTC (5 hours ago):

TAF HECA 210500Z 2106/2212 30009KT 9999 SCT025